Provo, Utah
Current Conditions -  °F | °C
As of 1:55 AM on Saturday 29 Nov 2014 (Local Time) from KPVU Reporting Station
Clear Clear  
Wind Chill: 41°   Ceiling: Unl
Heat Index: 45°   Visibility: 10mi
Dew Point: 19°   Wind: 6mph
Humidity: 37%   Direction: 120°ESE
Pressure: 29.82"   Gusts: NA
Location:  40.23°N, 111.66°W
Report Text: KPVU 290855Z 12005KT 10SM CLR 07/M07 A2982 RMK AO1 57010
Loading
Personal Weather Stations






























Interactive Weather Map New forecast layout! Learn more

10-Day Weather Forecast

Advertisements
Track Severe Weather on mobile